sensor_id;sensor_type;location;lat;lon;timestamp;P1;durP1;ratioP1;P2;durP2;ratioP2
28728;SDS011;15894;50.452;30.446;2022-08-05T13:40:30;9.93;;;8.93;;
28728;SDS011;15894;50.452;30.446;2022-08-05T13:52:34;12.57;;;9.55;;
28728;SDS011;15894;50.452;30.446;2022-08-05T13:55:00;22.63;;;10.38;;
28728;SDS011;15894;50.452;30.446;2022-08-05T14:04:42;9.95;;;8.77;;
28728;SDS011;15894;50.452;30.446;2022-08-05T14:10:15;11.70;;;8.30;;
28728;SDS011;15894;50.452;30.446;2022-08-05T14:12:43;10.27;;;8.20;;
28728;SDS011;15894;50.452;30.446;2022-08-05T14:15:09;12.20;;;8.80;;
28728;SDS011;15894;50.452;30.446;2022-08-05T14:17:36;9.90;;;8.30;;
28728;SDS011;15894;50.452;30.446;2022-08-05T14:20:02;11.18;;;8.25;;
28728;SDS011;15894;50.452;30.446;2022-08-05T14:22:29;11.60;;;8.38;;
28728;SDS011;15894;50.452;30.446;2022-08-05T14:24:54;12.15;;;8.30;;
28728;SDS011;15894;50.452;30.446;2022-08-05T14:27:20;11.25;;;8.50;;
28728;SDS011;15894;50.452;30.446;2022-08-05T14:29:45;11.93;;;8.20;;
28728;SDS011;15894;50.452;30.446;2022-08-05T14:32:11;10.55;;;8.00;;
28728;SDS011;15894;50.452;30.446;2022-08-05T14:34:37;12.98;;;8.18;;
28728;SDS011;15894;50.452;30.446;2022-08-05T14:37:03;9.23;;;8.18;;
28728;SDS011;15894;50.452;30.446;2022-08-05T14:39:29;8.98;;;8.00;;
28728;SDS011;15894;50.452;30.446;2022-08-05T14:41:55;9.93;;;8.50;;
28728;SDS011;15894;50.452;30.446;2022-08-05T14:44:21;10.15;;;8.68;;
28728;SDS011;15894;50.452;30.446;2022-08-05T14:46:47;11.88;;;8.80;;
28728;SDS011;15894;50.452;30.446;2022-08-05T14:49:12;9.68;;;8.13;;
28728;SDS011;15894;50.452;30.446;2022-08-05T14:51:38;8.63;;;7.53;;
28728;SDS011;15894;50.452;30.446;2022-08-05T14:54:05;9.07;;;7.57;;
28728;SDS011;15894;50.452;30.446;2022-08-05T14:56:31;10.45;;;8.07;;
28728;SDS011;15894;50.452;30.446;2022-08-05T14:58:57;9.23;;;8.20;;
28728;SDS011;15894;50.452;30.446;2022-08-05T15:01:23;10.50;;;7.93;;
28728;SDS011;15894;50.452;30.446;2022-08-05T15:03:49;10.07;;;8.00;;
28728;SDS011;15894;50.452;30.446;2022-08-05T15:06:15;9.43;;;7.88;;
28728;SDS011;15894;50.452;30.446;2022-08-05T15:08:41;11.10;;;7.85;;
28728;SDS011;15894;50.452;30.446;2022-08-05T15:11:08;9.85;;;7.70;;
28728;SDS011;15894;50.452;30.446;2022-08-05T15:13:34;9.93;;;8.32;;
28728;SDS011;15894;50.452;30.446;2022-08-05T15:16:00;8.65;;;7.75;;
28728;SDS011;15894;50.452;30.446;2022-08-05T15:18:26;9.73;;;7.80;;
28728;SDS011;15894;50.452;30.446;2022-08-05T15:20:51;10.18;;;7.78;;
28728;SDS011;15894;50.452;30.446;2022-08-05T15:23:17;10.20;;;7.82;;
28728;SDS011;15894;50.452;30.446;2022-08-05T15:25:43;12.07;;;7.57;;
28728;SDS011;15894;50.452;30.446;2022-08-05T15:28:09;11.13;;;7.60;;
28728;SDS011;15894;50.452;30.446;2022-08-05T15:30:35;9.95;;;7.63;;
28728;SDS011;15894;50.452;30.446;2022-08-05T15:33:01;10.57;;;7.65;;
28728;SDS011;15894;50.452;30.446;2022-08-05T15:35:27;8.50;;;7.70;;
28728;SDS011;15894;50.452;30.446;2022-08-05T15:37:53;10.30;;;7.22;;
28728;SDS011;15894;50.452;30.446;2022-08-05T15:40:19;7.55;;;6.75;;
28728;SDS011;15894;50.452;30.446;2022-08-05T15:42:45;18.75;;;7.43;;
28728;SDS011;15894;50.452;30.446;2022-08-05T15:45:11;9.63;;;6.88;;
28728;SDS011;15894;50.452;30.446;2022-08-05T15:47:37;7.80;;;7.00;;
28728;SDS011;15894;50.452;30.446;2022-08-05T15:50:03;9.00;;;7.23;;
28728;SDS011;15894;50.452;30.446;2022-08-05T15:52:30;9.95;;;7.45;;
28728;SDS011;15894;50.452;30.446;2022-08-05T15:54:57;10.30;;;7.50;;
28728;SDS011;15894;50.452;30.446;2022-08-05T15:57:23;8.50;;;7.28;;
28728;SDS011;15894;50.452;30.446;2022-08-05T15:59:49;8.77;;;6.95;;
28728;SDS011;15894;50.452;30.446;2022-08-05T16:02:15;7.90;;;4.95;;
28728;SDS011;15894;50.452;30.446;2022-08-05T16:04:41;12.32;;;5.05;;
28728;SDS011;15894;50.452;30.446;2022-08-05T16:07:07;12.60;;;4.85;;
28728;SDS011;15894;50.452;30.446;2022-08-05T16:09:33;12.07;;;5.88;;
28728;SDS011;15894;50.452;30.446;2022-08-05T16:11:59;11.50;;;5.40;;
28728;SDS011;15894;50.452;30.446;2022-08-05T16:14:24;7.13;;;4.82;;
28728;SDS011;15894;50.452;30.446;2022-08-05T16:16:50;7.55;;;5.03;;
28728;SDS011;15894;50.452;30.446;2022-08-05T16:19:16;8.70;;;5.68;;
28728;SDS011;15894;50.452;30.446;2022-08-05T16:21:42;7.95;;;6.38;;
28728;SDS011;15894;50.452;30.446;2022-08-05T16:24:07;13.93;;;6.60;;
28728;SDS011;15894;50.452;30.446;2022-08-05T16:26:33;12.93;;;6.53;;
28728;SDS011;15894;50.452;30.446;2022-08-05T16:29:12;7.70;;;6.03;;
28728;SDS011;15894;50.452;30.446;2022-08-05T16:31:38;9.63;;;6.60;;
28728;SDS011;15894;50.452;30.446;2022-08-05T16:34:03;9.50;;;6.93;;
28728;SDS011;15894;50.452;30.446;2022-08-05T16:36:29;13.00;;;6.40;;
28728;SDS011;15894;50.452;30.446;2022-08-05T16:38:55;19.60;;;7.60;;
28728;SDS011;15894;50.452;30.446;2022-08-05T16:41:24;11.55;;;7.07;;
28728;SDS011;15894;50.452;30.446;2022-08-05T16:43:49;18.10;;;8.60;;
28728;SDS011;15894;50.452;30.446;2022-08-05T16:46:15;11.40;;;6.75;;
28728;SDS011;15894;50.452;30.446;2022-08-05T16:48:40;18.02;;;7.97;;
28728;SDS011;15894;50.452;30.446;2022-08-05T16:51:06;9.90;;;6.85;;
28728;SDS011;15894;50.452;30.446;2022-08-05T16:53:32;12.02;;;7.60;;
28728;SDS011;15894;50.452;30.446;2022-08-05T16:55:58;15.43;;;7.45;;
28728;SDS011;15894;50.452;30.446;2022-08-05T16:58:23;14.40;;;8.65;;
28728;SDS011;15894;50.452;30.446;2022-08-05T17:00:49;12.32;;;7.82;;
28728;SDS011;15894;50.452;30.446;2022-08-05T17:03:14;11.52;;;8.13;;
28728;SDS011;15894;50.452;30.446;2022-08-05T17:05:40;15.35;;;8.57;;
28728;SDS011;15894;50.452;30.446;2022-08-05T17:08:06;10.18;;;7.20;;
28728;SDS011;15894;50.452;30.446;2022-08-05T17:10:31;14.30;;;7.57;;
28728;SDS011;15894;50.452;30.446;2022-08-05T17:12:58;13.00;;;6.55;;
28728;SDS011;15894;50.452;30.446;2022-08-05T17:15:23;11.88;;;7.22;;
28728;SDS011;15894;50.452;30.446;2022-08-05T17:17:49;12.65;;;7.30;;
28728;SDS011;15894;50.452;30.446;2022-08-05T17:20:15;10.90;;;7.13;;
28728;SDS011;15894;50.452;30.446;2022-08-05T17:22:40;9.50;;;6.32;;
28728;SDS011;15894;50.452;30.446;2022-08-05T17:25:06;8.70;;;6.93;;
28728;SDS011;15894;50.452;30.446;2022-08-05T17:27:32;13.43;;;6.70;;
28728;SDS011;15894;50.452;30.446;2022-08-05T17:29:58;9.52;;;7.40;;
28728;SDS011;15894;50.452;30.446;2022-08-05T17:32:23;11.45;;;6.70;;
28728;SDS011;15894;50.452;30.446;2022-08-05T17:34:49;8.98;;;6.53;;
28728;SDS011;15894;50.452;30.446;2022-08-05T17:37:15;14.48;;;8.15;;
28728;SDS011;15894;50.452;30.446;2022-08-05T17:39:41;9.52;;;6.85;;
28728;SDS011;15894;50.452;30.446;2022-08-05T17:42:07;8.80;;;6.60;;
28728;SDS011;15894;50.452;30.446;2022-08-05T17:44:32;11.52;;;7.28;;
28728;SDS011;15894;50.452;30.446;2022-08-05T17:46:58;12.13;;;7.70;;
28728;SDS011;15894;50.452;30.446;2022-08-05T17:49:23;8.88;;;7.18;;
28728;SDS011;15894;50.452;30.446;2022-08-05T17:51:49;8.48;;;7.47;;
28728;SDS011;15894;50.452;30.446;2022-08-05T17:54:14;11.13;;;6.97;;
28728;SDS011;15894;50.452;30.446;2022-08-05T17:56:41;11.15;;;7.20;;
28728;SDS011;15894;50.452;30.446;2022-08-05T17:59:07;9.73;;;7.70;;
28728;SDS011;15894;50.452;30.446;2022-08-05T18:01:33;17.25;;;8.88;;
28728;SDS011;15894;50.452;30.446;2022-08-05T18:03:59;15.35;;;10.52;;
28728;SDS011;15894;50.452;30.446;2022-08-05T18:06:24;11.93;;;8.65;;
28728;SDS011;15894;50.452;30.446;2022-08-05T18:08:50;15.05;;;11.85;;
28728;SDS011;15894;50.452;30.446;2022-08-05T18:11:16;15.63;;;11.38;;
28728;SDS011;15894;50.452;30.446;2022-08-05T18:13:42;18.50;;;12.85;;
28728;SDS011;15894;50.452;30.446;2022-08-05T18:16:07;13.65;;;11.05;;
28728;SDS011;15894;50.452;30.446;2022-08-05T18:18:34;15.25;;;10.77;;
28728;SDS011;15894;50.452;30.446;2022-08-05T18:21:00;13.68;;;10.65;;
28728;SDS011;15894;50.452;30.446;2022-08-05T18:23:27;13.70;;;11.20;;
28728;SDS011;15894;50.452;30.446;2022-08-05T18:25:53;12.73;;;10.93;;
28728;SDS011;15894;50.452;30.446;2022-08-05T18:28:18;20.63;;;14.07;;
28728;SDS011;15894;50.452;30.446;2022-08-05T18:30:44;18.38;;;13.55;;
28728;SDS011;15894;50.452;30.446;2022-08-05T18:33:14;19.33;;;13.55;;
28728;SDS011;15894;50.452;30.446;2022-08-05T18:35:40;16.10;;;12.82;;
28728;SDS011;15894;50.452;30.446;2022-08-05T18:38:06;15.95;;;11.52;;
28728;SDS011;15894;50.452;30.446;2022-08-05T18:40:32;20.58;;;12.85;;
28728;SDS011;15894;50.452;30.446;2022-08-05T18:42:59;21.92;;;12.38;;
28728;SDS011;15894;50.452;30.446;2022-08-05T18:45:25;15.30;;;10.10;;
28728;SDS011;15894;50.452;30.446;2022-08-05T18:47:51;9.70;;;8.43;;
28728;SDS011;15894;50.452;30.446;2022-08-05T18:50:17;11.68;;;7.75;;
28728;SDS011;15894;50.452;30.446;2022-08-05T18:53:01;11.50;;;8.77;;
28728;SDS011;15894;50.452;30.446;2022-08-05T18:55:27;10.63;;;8.27;;
28728;SDS011;15894;50.452;30.446;2022-08-05T18:57:53;13.20;;;8.15;;
28728;SDS011;15894;50.452;30.446;2022-08-05T19:00:19;10.45;;;7.22;;
28728;SDS011;15894;50.452;30.446;2022-08-05T19:02:46;9.85;;;7.00;;
28728;SDS011;15894;50.452;30.446;2022-08-05T19:05:11;11.02;;;7.15;;
28728;SDS011;15894;50.452;30.446;2022-08-05T19:07:37;8.70;;;6.38;;
28728;SDS011;15894;50.452;30.446;2022-08-05T19:10:03;14.77;;;8.27;;
28728;SDS011;15894;50.452;30.446;2022-08-05T19:12:29;11.90;;;7.80;;
28728;SDS011;15894;50.452;30.446;2022-08-05T19:14:57;10.48;;;6.55;;
28728;SDS011;15894;50.452;30.446;2022-08-05T19:17:23;11.65;;;7.47;;
28728;SDS011;15894;50.452;30.446;2022-08-05T19:19:49;10.68;;;8.13;;
28728;SDS011;15894;50.452;30.446;2022-08-05T19:22:15;10.18;;;6.00;;
28728;SDS011;15894;50.452;30.446;2022-08-05T19:24:41;9.68;;;6.70;;
28728;SDS011;15894;50.452;30.446;2022-08-05T19:27:07;11.57;;;6.70;;
28728;SDS011;15894;50.452;30.446;2022-08-05T19:29:35;9.50;;;6.60;;
28728;SDS011;15894;50.452;30.446;2022-08-05T19:32:01;9.07;;;6.10;;
28728;SDS011;15894;50.452;30.446;2022-08-05T19:34:31;9.55;;;6.18;;
28728;SDS011;15894;50.452;30.446;2022-08-05T19:36:56;9.00;;;6.30;;
28728;SDS011;15894;50.452;30.446;2022-08-05T19:39:22;9.73;;;6.40;;
28728;SDS011;15894;50.452;30.446;2022-08-05T19:41:48;9.68;;;6.80;;
28728;SDS011;15894;50.452;30.446;2022-08-05T19:44:13;10.13;;;6.47;;
28728;SDS011;15894;50.452;30.446;2022-08-05T19:46:39;12.40;;;7.70;;
28728;SDS011;15894;50.452;30.446;2022-08-05T19:49:05;8.40;;;7.13;;
28728;SDS011;15894;50.452;30.446;2022-08-05T19:51:32;11.15;;;7.68;;
28728;SDS011;15894;50.452;30.446;2022-08-05T19:53:58;10.13;;;7.30;;
28728;SDS011;15894;50.452;30.446;2022-08-05T19:56:24;9.85;;;7.97;;
28728;SDS011;15894;50.452;30.446;2022-08-05T19:58:49;12.85;;;8.45;;
28728;SDS011;15894;50.452;30.446;2022-08-05T20:01:15;12.73;;;8.00;;
28728;SDS011;15894;50.452;30.446;2022-08-05T20:03:41;12.30;;;8.25;;
28728;SDS011;15894;50.452;30.446;2022-08-05T20:06:07;12.55;;;8.18;;
28728;SDS011;15894;50.452;30.446;2022-08-05T20:08:33;9.52;;;8.15;;
28728;SDS011;15894;50.452;30.446;2022-08-05T20:10:59;15.25;;;9.60;;
28728;SDS011;15894;50.452;30.446;2022-08-05T20:13:25;15.43;;;8.88;;
28728;SDS011;15894;50.452;30.446;2022-08-05T20:15:50;16.13;;;9.45;;
28728;SDS011;15894;50.452;30.446;2022-08-05T20:18:16;11.25;;;9.52;;
28728;SDS011;15894;50.452;30.446;2022-08-05T20:20:43;13.30;;;10.10;;
28728;SDS011;15894;50.452;30.446;2022-08-05T20:23:09;22.38;;;10.52;;
28728;SDS011;15894;50.452;30.446;2022-08-05T20:25:35;13.32;;;10.35;;
28728;SDS011;15894;50.452;30.446;2022-08-05T20:28:01;12.90;;;10.32;;
28728;SDS011;15894;50.452;30.446;2022-08-05T20:30:27;13.70;;;10.35;;
28728;SDS011;15894;50.452;30.446;2022-08-05T20:32:54;21.27;;;11.57;;
28728;SDS011;15894;50.452;30.446;2022-08-05T20:35:20;17.80;;;10.70;;
28728;SDS011;15894;50.452;30.446;2022-08-05T20:37:45;15.32;;;10.77;;
28728;SDS011;15894;50.452;30.446;2022-08-05T20:40:11;12.43;;;10.30;;
28728;SDS011;15894;50.452;30.446;2022-08-05T20:42:37;16.17;;;10.55;;
28728;SDS011;15894;50.452;30.446;2022-08-05T20:45:03;18.48;;;11.68;;
28728;SDS011;15894;50.452;30.446;2022-08-05T20:47:30;13.10;;;11.55;;
28728;SDS011;15894;50.452;30.446;2022-08-05T20:49:56;16.33;;;11.05;;
28728;SDS011;15894;50.452;30.446;2022-08-05T20:52:21;14.60;;;11.48;;
28728;SDS011;15894;50.452;30.446;2022-08-05T20:54:47;13.32;;;11.63;;
28728;SDS011;15894;50.452;30.446;2022-08-05T20:57:13;14.43;;;11.77;;
28728;SDS011;15894;50.452;30.446;2022-08-05T20:59:39;14.57;;;10.98;;
28728;SDS011;15894;50.452;30.446;2022-08-05T21:02:04;18.02;;;12.23;;
28728;SDS011;15894;50.452;30.446;2022-08-05T21:04:30;17.90;;;11.90;;
28728;SDS011;15894;50.452;30.446;2022-08-05T21:06:57;17.40;;;12.57;;
28728;SDS011;15894;50.452;30.446;2022-08-05T21:09:22;15.13;;;12.95;;
28728;SDS011;15894;50.452;30.446;2022-08-05T21:11:49;15.05;;;12.32;;
28728;SDS011;15894;50.452;30.446;2022-08-05T21:14:15;16.75;;;12.60;;
28728;SDS011;15894;50.452;30.446;2022-08-05T21:16:40;17.90;;;13.88;;
28728;SDS011;15894;50.452;30.446;2022-08-05T21:19:06;17.83;;;13.55;;
28728;SDS011;15894;50.452;30.446;2022-08-05T21:21:32;19.15;;;13.30;;
28728;SDS011;15894;50.452;30.446;2022-08-05T21:23:57;15.07;;;13.18;;
28728;SDS011;15894;50.452;30.446;2022-08-05T21:26:23;15.70;;;13.27;;
28728;SDS011;15894;50.452;30.446;2022-08-05T21:28:48;16.50;;;13.48;;
28728;SDS011;15894;50.452;30.446;2022-08-05T21:31:14;19.73;;;13.82;;
28728;SDS011;15894;50.452;30.446;2022-08-05T21:33:40;18.27;;;14.05;;
28728;SDS011;15894;50.452;30.446;2022-08-05T21:36:05;17.90;;;13.27;;
28728;SDS011;15894;50.452;30.446;2022-08-05T21:38:31;15.75;;;13.60;;
28728;SDS011;15894;50.452;30.446;2022-08-05T21:40:57;18.40;;;13.90;;
28728;SDS011;15894;50.452;30.446;2022-08-05T21:43:23;23.55;;;14.10;;
28728;SDS011;15894;50.452;30.446;2022-08-05T21:45:48;17.65;;;14.10;;
28728;SDS011;15894;50.452;30.446;2022-08-05T21:48:14;21.65;;;14.73;;
28728;SDS011;15894;50.452;30.446;2022-08-05T21:50:40;16.75;;;14.35;;
28728;SDS011;15894;50.452;30.446;2022-08-05T21:53:06;16.00;;;14.32;;
28728;SDS011;15894;50.452;30.446;2022-08-05T21:55:33;22.38;;;15.13;;
28728;SDS011;15894;50.452;30.446;2022-08-05T21:57:59;23.65;;;14.20;;
28728;SDS011;15894;50.452;30.446;2022-08-05T22:00:24;18.67;;;15.07;;
28728;SDS011;15894;50.452;30.446;2022-08-05T22:02:50;17.92;;;14.25;;
28728;SDS011;15894;50.452;30.446;2022-08-05T22:05:16;19.63;;;14.68;;
28728;SDS011;15894;50.452;30.446;2022-08-05T22:07:42;20.10;;;15.70;;
28728;SDS011;15894;50.452;30.446;2022-08-05T22:10:08;21.77;;;16.05;;
28728;SDS011;15894;50.452;30.446;2022-08-05T22:12:34;20.15;;;15.95;;
28728;SDS011;15894;50.452;30.446;2022-08-05T22:15:07;21.85;;;15.18;;
28728;SDS011;15894;50.452;30.446;2022-08-05T22:17:35;18.42;;;15.52;;
28728;SDS011;15894;50.452;30.446;2022-08-05T22:20:01;18.48;;;14.90;;
28728;SDS011;15894;50.452;30.446;2022-08-05T22:22:27;17.90;;;14.88;;
28728;SDS011;15894;50.452;30.446;2022-08-05T22:24:53;20.70;;;15.02;;
28728;SDS011;15894;50.452;30.446;2022-08-05T22:27:37;18.20;;;14.18;;
28728;SDS011;15894;50.452;30.446;2022-08-05T22:30:11;16.10;;;13.60;;
28728;SDS011;15894;50.452;30.446;2022-08-05T22:32:39;16.42;;;14.70;;
28728;SDS011;15894;50.452;30.446;2022-08-05T22:35:05;16.05;;;13.63;;
28728;SDS011;15894;50.452;30.446;2022-08-05T22:37:31;14.68;;;12.65;;
28728;SDS011;15894;50.452;30.446;2022-08-05T22:39:56;19.45;;;14.10;;
28728;SDS011;15894;50.452;30.446;2022-08-05T22:42:22;18.40;;;13.15;;
28728;SDS011;15894;50.452;30.446;2022-08-05T22:44:48;19.42;;;13.77;;
28728;SDS011;15894;50.452;30.446;2022-08-05T22:47:14;17.00;;;13.35;;
28728;SDS011;15894;50.452;30.446;2022-08-05T22:49:39;18.10;;;13.07;;
28728;SDS011;15894;50.452;30.446;2022-08-05T22:52:05;17.63;;;13.60;;
28728;SDS011;15894;50.452;30.446;2022-08-05T22:54:31;18.02;;;13.82;;
28728;SDS011;15894;50.452;30.446;2022-08-05T22:56:56;17.20;;;13.25;;
28728;SDS011;15894;50.452;30.446;2022-08-05T22:59:22;17.55;;;13.32;;
28728;SDS011;15894;50.452;30.446;2022-08-05T23:01:47;16.63;;;13.15;;
28728;SDS011;15894;50.452;30.446;2022-08-05T23:04:13;14.35;;;11.70;;
28728;SDS011;15894;50.452;30.446;2022-08-05T23:06:39;20.00;;;13.38;;
28728;SDS011;15894;50.452;30.446;2022-08-05T23:09:04;21.70;;;12.90;;
28728;SDS011;15894;50.452;30.446;2022-08-05T23:11:30;17.20;;;12.48;;
28728;SDS011;15894;50.452;30.446;2022-08-05T23:13:55;16.17;;;12.93;;
28728;SDS011;15894;50.452;30.446;2022-08-05T23:16:21;15.52;;;13.25;;
28728;SDS011;15894;50.452;30.446;2022-08-05T23:19:06;13.90;;;11.57;;
28728;SDS011;15894;50.452;30.446;2022-08-05T23:21:32;17.35;;;12.05;;
28728;SDS011;15894;50.452;30.446;2022-08-05T23:23:58;16.80;;;12.13;;
28728;SDS011;15894;50.452;30.446;2022-08-05T23:26:23;15.15;;;11.95;;
28728;SDS011;15894;50.452;30.446;2022-08-05T23:28:49;19.40;;;11.90;;
28728;SDS011;15894;50.452;30.446;2022-08-05T23:31:14;15.20;;;12.43;;
28728;SDS011;15894;50.452;30.446;2022-08-05T23:33:40;16.45;;;11.68;;
28728;SDS011;15894;50.452;30.446;2022-08-05T23:36:06;16.45;;;11.40;;
28728;SDS011;15894;50.452;30.446;2022-08-05T23:38:31;14.07;;;10.60;;
28728;SDS011;15894;50.452;30.446;2022-08-05T23:40:57;15.98;;;11.23;;
28728;SDS011;15894;50.452;30.446;2022-08-05T23:43:22;18.70;;;10.88;;
28728;SDS011;15894;50.452;30.446;2022-08-05T23:45:48;13.45;;;11.20;;
28728;SDS011;15894;50.452;30.446;2022-08-05T23:48:14;16.85;;;11.50;;
28728;SDS011;15894;50.452;30.446;2022-08-05T23:50:39;13.20;;;11.15;;
28728;SDS011;15894;50.452;30.446;2022-08-05T23:53:05;15.30;;;11.32;;
28728;SDS011;15894;50.452;30.446;2022-08-05T23:55:30;16.10;;;10.93;;
28728;SDS011;15894;50.452;30.446;2022-08-05T23:57:56;11.85;;;10.45;;
